Wetterdaten: aktuell Sonntag, 02.10.2022 21:30
Datum Zeit Temperatur Bodentemp. Luftfeuchte Luftdruck Niederschlag Windgeschw. Windrichtung Windrichtung Sonnenschein Nieder.dauer Evapotrans. Solarstrahl. Taupunkt Windchill Windböen
02.10.2022 21:30 11,7 °C 11,1 °C 89 % 1017,3 hPa 0,0 l/m² 3,6 km/h (1 Bft) W 270 ° 0 min 0 min 0 mm 0 W/m² 9,9 °C 11,7 °C 7,2 km/h (2 Bft)
02.10.2022 20:30 12,3 °C 11,7 °C 86 % 1016,4 hPa 0,0 l/m² 1,8 km/h (1 Bft) W-NW 292 ° 0 min 0 min 0 mm 0 W/m² 10,0 °C 12,3 °C 7,2 km/h (2 Bft)
02.10.2022 19:30 12,8 °C 11,7 °C 84 % 1015,7 hPa 0,0 l/m² 9,0 km/h (2 Bft) W-NW 292 ° 12 min 0 min 0 mm 0 W/m² 10,2 °C 12,8 °C 14,4 km/h (3 Bft)
02.10.2022 18:30 13,8 °C 13,3 °C 80 % 1014,7 hPa 0,0 l/m² 10,8 km/h (2 Bft) NW 315 ° 29 min 0 min 0 mm 33 W/m² 10,4 °C 13,8 °C 16,1 km/h (3 Bft)
02.10.2022 17:30 14,7 °C 13,9 °C 77 % 1013,5 hPa 0,0 l/m² 10,8 km/h (2 Bft) W-NW 292 ° 59 min 0 min 0 mm 169 W/m² 10,7 °C 14,7 °C 16,1 km/h (3 Bft)
02.10.2022 16:30 14,4 °C 12,8 °C 80 % 1013,3 hPa 0,4 l/m² 14,4 km/h (3 Bft) W-NW 292 ° 39 min 20 min 0 mm 320 W/m² 11,0 °C 14,4 °C 23,3 km/h (4 Bft)
02.10.2022 15:30 15,3 °C 13,3 °C 79 % 1013,0 hPa 0,2 l/m² 12,6 km/h (3 Bft) NW 315 ° 41 min 15 min 0 mm 90 W/m² 11,7 °C 15,3 °C 17,9 km/h (3 Bft)
02.10.2022 14:30 15,3 °C 15,0 °C 80 % 1012,4 hPa 0,2 l/m² 9,0 km/h (2 Bft) W-NW 292 ° 35 min 7 min 0 mm 599 W/m² 11,9 °C 15,3 °C 12,6 km/h (3 Bft)
02.10.2022 13:30 14,7 °C 13,9 °C 79 % 1012,1 hPa 0,0 l/m² 7,2 km/h (2 Bft) W 270 ° 18 min 0 min 0 mm 132 W/m² 11,1 °C 14,7 °C 16,1 km/h (3 Bft)
02.10.2022 12:30 14,3 °C 12,8 °C 86 % 1011,6 hPa 0,0 l/m² 5,4 km/h (1 Bft) NW 315 ° 41 min 0 min 0 mm 139 W/m² 12,0 °C 14,3 °C 10,8 km/h (2 Bft)
02.10.2022 11:30 12,9 °C 12,2 °C 97 % 1011,5 hPa 0,0 l/m² 5,4 km/h (1 Bft) W-NW 292 ° 50 min 20 min 0 mm 506 W/m² 12,4 °C 12,9 °C 10,8 km/h (2 Bft)
02.10.2022 10:30 11,6 °C 11,7 °C 98 % 1011,1 hPa 0,8 l/m² 1,8 km/h (1 Bft) W-SW 247 ° 13 min 40 min 0 mm 220 W/m² 11,3 °C 11,6 °C 7,2 km/h (2 Bft)
02.10.2022 09:30 10,8 °C 10,6 °C 98 % 1010,6 hPa 0,8 l/m² 5,4 km/h (1 Bft) SW 225 ° 9 min 34 min 0 mm 288 W/m² 10,5 °C 10,8 °C 10,8 km/h (2 Bft)
02.10.2022 08:30 10,6 °C 10,6 °C 98 % 1010,6 hPa 2,4 l/m² 3,6 km/h (1 Bft) W-NW 292 ° 4 min 60 min 0 mm 25 W/m² 10,3 °C 10,6 °C 5,4 km/h (1 Bft)
02.10.2022 07:30 10,5 °C 10,6 °C 97 % 1009,6 hPa 2,2 l/m² 7,2 km/h (2 Bft) S-SW 202 ° 0 min 60 min 0 mm 5 W/m² 10,0 °C 10,5 °C 10,8 km/h (2 Bft)
02.10.2022 06:30 10,6 °C 10,6 °C 97 % 1009,8 hPa 1,0 l/m² 7,2 km/h (2 Bft) W-NW 292 ° 0 min 47 min 0 mm 0 W/m² 10,1 °C 10,6 °C 10,8 km/h (2 Bft)
02.10.2022 05:30 10,3 °C 10,0 °C 97 % 1009,2 hPa 0,2 l/m² 10,8 km/h (2 Bft) S-SW 202 ° 0 min 1 min 0 mm 0 W/m² 9,8 °C 10,3 °C 17,9 km/h (3 Bft)
02.10.2022 04:30 10,2 °C 9,4 °C 97 % 1008,8 hPa 0,0 l/m² 1,8 km/h (1 Bft) S-SW 202 ° 0 min 26 min 0 mm 0 W/m² 9,7 °C 10,2 °C 3,6 km/h (1 Bft)
02.10.2022 03:30 10,5 °C 10,0 °C 97 % 1008,5 hPa 0,4 l/m² 5,4 km/h (1 Bft) W-SW 247 ° 0 min 55 min 0 mm 0 W/m² 10,0 °C 10,5 °C 10,8 km/h (2 Bft)
02.10.2022 02:30 10,7 °C 10,6 °C 97 % 1008,5 hPa 0,4 l/m² 5,4 km/h (1 Bft) S-SW 202 ° 0 min 30 min 0 mm 0 W/m² 10,2 °C 10,7 °C 9,0 km/h (2 Bft)
02.10.2022 01:30 10,6 °C 10,0 °C 96 % 1007,7 hPa 0,2 l/m² 7,2 km/h (2 Bft) SW 225 ° 0 min 26 min 0 mm 0 W/m² 10,0 °C 10,6 °C 16,1 km/h (3 Bft)
02.10.2022 00:30 10,6 °C 10,0 °C 96 % 1007,5 hPa 0,0 l/m² 7,2 km/h (2 Bft) S-SW 202 ° 0 min 28 min 0 mm 0 W/m² 10,0 °C 10,6 °C 16,1 km/h (3 Bft)
01.10.2022 23:30 10,9 °C 10,0 °C 95 % 1006,9 hPa 1,2 l/m² 3,6 km/h (1 Bft) S-SW 202 ° 0 min 52 min 0 mm 0 W/m² 10,1 °C 10,9 °C 10,8 km/h (2 Bft)
01.10.2022 22:30 10,9 °C 10,0 °C 93 % 1006,1 hPa 0,8 l/m² 3,6 km/h (1 Bft) W-SW 247 ° 0 min 26 min 0 mm 0 W/m² 9,8 °C 10,9 °C 7,2 km/h (2 Bft)
01.10.2022 22:00 10,9 °C 10,6 °C 94 % 1005,6 hPa 0,0 l/m² 3,6 km/h (1 Bft) W-SW 247 ° 0 min 0 min 0 mm 0 W/m² 10,0 °C 10,9 °C 9,0 km/h (2 Bft)
_ Min-Zeit 04:25 04:18 17:21 22:00 - 23:55 - - - - - - 03:59 04:25 08:35
Minimum _ 10,2 °C 9,4 °C 76 % 1005,6 hPa - 0,0 km/h (0 Bft) - - - - - - 9,7 °C 10,2 °C 0,0 km/h (0 Bft)
_ Max-Zeit 14:39 14:32 10:46 21:30 08:17 22:06 - - 07:59 22:05 12:00 13:12 12:23 14:40 16:27
Maximum _ 15,7 °C 15,6 °C 99 % 1017,3 hPa 0,4 l/m² 17,9 km/h
S (3 Bft)
- - 1 min 1 min 0 mm 696 W/m² 12,5 °C 15,7 °C 35,9 km/h
W-NW (5 Bft)
Durchschnitt _ 12,0 °C 11,4 °C 91 % 1010,5 hPa #11,2 l/m² 6,8 km/h (2 Bft) SW - #5:50 h #7:21 h #1,523 mm 228 W/m² 10,6 °C 12,0 °C 12,3 km/h (3 Bft)